Time;durP1;ratioP1;P1;durP2;ratioP2;P2;SDS_P1;SDS_P2;PMS_P1;PMS_P2;Temp;Humidity;BMP_temperature;BMP_pressure;BME280_temperature;BME280_humidity;BME280_pressure;Samples;Min_cycle;Max_cycle;Signal;HPM_P1;HPM_P2
2021/03/30 00:00:30;;;;;;;3.63;2.57;;;;;;;18.55;48.54;100890.53;2061261;28;20045;-55
2021/03/30 00:01:31;;;;;;;2.87;2.30;;;;;;;18.56;48.53;100885.91;2063258;28;20472;-56
2021/03/30 00:02:31;;;;;;;3.20;2.07;;;;;;;18.54;48.44;100888.75;2062191;28;20121;-56
2021/03/30 00:03:32;;;;;;;2.42;2.10;;;;;;;18.55;48.59;100884.19;2065740;28;20034;-56
2021/03/30 00:04:33;;;;;;;4.80;2.40;;;;;;;18.55;48.54;100885.06;2064575;28;20030;-55
2021/03/30 00:05:33;;;;;;;3.33;2.47;;;;;;;18.55;48.46;100884.19;2060963;28;20022;-56
2021/03/30 00:06:34;;;;;;;4.03;2.90;;;;;;;18.55;48.55;100884.19;2056800;28;20118;-56
2021/03/30 00:07:34;;;;;;;3.53;2.63;;;;;;;18.54;48.58;100882.44;2060454;28;20283;-56
2021/03/30 00:08:35;;;;;;;3.23;2.70;;;;;;;18.54;48.44;100887.91;2065813;28;20038;-56
2021/03/30 00:09:35;;;;;;;3.30;2.60;;;;;;;18.55;48.54;100889.66;2058729;28;20345;-55
2021/03/30 00:10:45;;;;;;;2.60;2.40;;;;;;;18.53;48.51;100887.03;2058886;28;20092;-54
2021/03/30 00:11:46;;;;;;;2.97;2.22;;;;;;;18.53;48.48;100880.72;2058409;28;20080;-56
2021/03/30 00:12:46;;;;;;;3.07;2.50;;;;;;;18.55;48.71;100884.19;2061738;28;20132;-56
2021/03/30 00:13:47;;;;;;;3.20;2.17;;;;;;;18.54;48.62;100887.91;2065385;28;20049;-55
2021/03/30 00:14:47;;;;;;;4.05;2.55;;;;;;;18.54;48.67;100887.91;2060436;28;20440;-55
2021/03/30 00:15:48;;;;;;;3.13;2.50;;;;;;;18.53;48.51;100881.59;2063383;28;20145;-54
2021/03/30 00:16:49;;;;;;;4.33;2.30;;;;;;;18.52;48.51;100879.88;2073842;28;20101;-54
2021/03/30 00:17:49;;;;;;;2.10;1.83;;;;;;;18.54;48.56;100888.75;2063832;28;20324;-54
2021/03/30 00:18:49;;;;;;;3.67;2.67;;;;;;;18.53;48.55;100886.19;2057779;28;20374;-55
2021/03/30 00:19:50;;;;;;;4.63;2.53;;;;;;;18.53;48.54;100883.44;2058201;28;20097;-55
2021/03/30 00:20:51;;;;;;;3.60;2.40;;;;;;;18.53;48.56;100883.44;2055882;28;20055;-57
2021/03/30 00:21:51;;;;;;;2.53;2.30;;;;;;;18.54;48.50;100887.91;2057852;28;20030;-55
2021/03/30 00:22:52;;;;;;;3.77;2.27;;;;;;;18.53;48.49;100886.19;2056808;28;20662;-54
2021/03/30 00:23:52;;;;;;;2.83;2.40;;;;;;;18.53;48.62;100886.19;2057827;28;20034;-53
2021/03/30 00:24:53;;;;;;;4.43;2.67;;;;;;;18.53;48.72;100888.91;2062194;28;20034;-55
2021/03/30 00:25:53;;;;;;;2.37;2.07;;;;;;;18.53;48.59;100883.44;2062705;28;20041;-54
2021/03/30 00:26:54;;;;;;;5.17;2.27;;;;;;;18.52;48.61;100885.31;2073939;28;20022;-55
2021/03/30 00:27:54;;;;;;;2.60;2.10;;;;;;;18.52;48.51;100885.31;2065345;28;20053;-55
2021/03/30 00:28:54;;;;;;;2.23;2.00;;;;;;;18.53;48.45;100878.00;2065056;28;20078;-54
2021/03/30 00:29:55;;;;;;;4.17;2.63;;;;;;;18.51;48.51;100879.97;2059876;28;20034;-54
2021/03/30 00:30:55;;;;;;;4.03;2.37;;;;;;;18.52;48.45;100881.69;2056754;28;20073;-54
2021/03/30 00:31:56;;;;;;;2.60;2.10;;;;;;;18.50;48.58;100880.97;2065536;28;20030;-54
2021/03/30 00:32:56;;;;;;;3.17;2.40;;;;;;;18.51;48.42;100882.69;2064011;28;20396;-54
2021/03/30 00:33:57;;;;;;;3.13;2.23;;;;;;;18.50;48.56;100880.97;2065532;28;20118;-55
2021/03/30 00:34:57;;;;;;;4.10;2.30;;;;;;;18.50;48.22;100875.53;2067149;28;20037;-52
2021/03/30 00:35:57;;;;;;;2.37;1.90;;;;;;;18.49;48.33;100874.63;2062328;28;20753;-52
2021/03/30 00:36:58;;;;;;;3.07;2.30;;;;;;;18.50;48.52;100878.25;2062609;28;20054;-54
2021/03/30 00:37:58;;;;;;;2.97;2.10;;;;;;;18.48;48.46;100877.50;2066784;28;20054;-55
2021/03/30 00:38:59;;;;;;;3.13;1.90;;;;;;;18.50;48.55;100876.38;2064966;28;20026;-55
2021/03/30 00:39:59;;;;;;;4.00;2.30;;;;;;;18.50;48.34;100880.97;2065133;28;20049;-54
2021/03/30 00:41:00;;;;;;;4.03;2.30;;;;;;;18.49;48.36;100876.50;2065451;28;20129;-53
2021/03/30 00:42:00;;;;;;;3.23;2.20;;;;;;;18.48;48.41;100872.06;2065282;28;20423;-54
2021/03/30 00:43:01;;;;;;;3.87;2.30;;;;;;;18.49;48.23;100869.16;2062216;28;20110;-55
2021/03/30 00:44:08;;;;;;;3.03;2.07;;;;;;;18.48;48.37;100878.38;2063525;28;20030;-55
2021/03/30 00:45:10;;;;;;;2.80;2.33;;;;;;;18.49;48.24;100868.31;2062186;28;20049;-54
2021/03/30 00:46:13;;;;;;;2.58;2.20;;;;;;;18.48;48.34;100872.06;2058159;28;20330;-55
2021/03/30 00:47:15;;;;;;;2.17;1.90;;;;;;;18.49;48.28;100868.31;2059448;28;20027;-54
2021/03/30 00:48:21;;;;;;;;;;;;;;;18.42;48.56;100871.56;2067032;28;20040;-54
2021/03/30 00:49:22;;;;;;;3.08;2.10;;;;;;;18.43;48.54;100865.09;2057973;28;19914;-55
2021/03/30 00:50:27;;;;;;;3.33;2.27;;;;;;;18.45;48.37;100864.09;2061246;28;20033;-54
2021/03/30 00:51:28;;;;;;;3.28;2.53;;;;;;;18.46;48.52;100863.13;2064148;28;20113;-55
2021/03/30 00:52:30;;;;;;;4.00;2.70;;;;;;;18.45;48.44;100867.72;2060034;28;20031;-55
2021/03/30 00:53:30;;;;;;;2.85;2.13;;;;;;;18.46;48.42;100857.66;2059986;28;20030;-54
2021/03/30 00:54:31;;;;;;;2.93;2.20;;;;;;;18.46;48.37;100858.50;2057332;28;20028;-55
2021/03/30 00:55:31;;;;;;;3.10;2.27;;;;;;;18.46;48.42;100857.66;2061951;28;20041;-54
2021/03/30 00:56:32;;;;;;;3.03;2.20;;;;;;;18.46;48.46;100857.66;2063983;28;20400;-54
2021/03/30 00:57:35;;;;;;;3.70;2.50;;;;;;;18.46;48.27;100855.78;2060004;28;20692;-54
2021/03/30 00:58:36;;;;;;;2.67;2.00;;;;;;;18.47;48.38;100864.84;2060936;28;20085;-53
2021/03/30 00:59:36;;;;;;;3.10;2.10;;;;;;;18.47;48.28;100857.53;2063892;28;20030;-55
2021/03/30 01:00:37;;;;;;;2.63;2.30;;;;;;;18.46;48.38;100857.66;2064597;28;20030;-54
2021/03/30 01:01:37;;;;;;;3.85;2.35;;;;;;;18.46;48.26;100858.50;2057063;28;20113;-54
2021/03/30 01:02:39;;;;;;;2.67;2.10;;;;;;;18.46;48.22;100858.50;2063208;28;20038;-56
2021/03/30 01:03:39;;;;;;;2.90;2.10;;;;;;;18.46;48.55;100846.72;2060663;28;20678;-55
2021/03/30 01:04:40;;;;;;;4.27;2.50;;;;;;;18.45;48.48;100853.16;2061743;28;20027;-53
2021/03/30 01:05:41;;;;;;;2.60;1.90;;;;;;;18.46;48.35;100854.91;2064340;28;20212;-55
2021/03/30 01:06:41;;;;;;;2.77;2.27;;;;;;;18.45;48.23;100855.91;2059403;28;20026;-53
2021/03/30 01:08:00;;;;;;;2.23;2.03;;;;;;;18.43;48.36;100848.72;2064254;28;20026;-55
2021/03/30 01:09:04;;;;;;;2.97;2.20;;;;;;;18.44;48.51;100855.03;2068289;28;20102;-54
2021/03/30 01:10:52;;;;;;;3.15;2.45;;;;;;;18.41;48.39;100853.44;2059877;28;20152;-54
2021/03/30 01:12:04;;;;;;;3.03;2.22;;;;;;;18.40;48.39;100848.97;2066239;28;20505;-54
2021/03/30 01:13:38;;;;;;;3.00;1.90;;;;;;;18.39;48.57;100841.75;2067548;28;20034;-54
2021/03/30 01:14:47;;;;;;;5.28;2.13;;;;;;;18.40;48.35;100854.44;2061841;28;20061;-54
2021/03/30 01:15:59;;;;;;;3.33;2.17;;;;;;;18.40;48.43;100843.53;2057255;28;20034;-54
2021/03/30 01:17:14;;;;;;;3.03;2.17;;;;;;;18.40;48.51;100843.53;2065207;28;20108;-54
2021/03/30 01:18:19;;;;;;;2.75;2.00;;;;;;;18.40;48.37;100846.25;2064124;28;20136;-54
2021/03/30 01:19:57;;;;;;;2.88;1.90;;;;;;;18.39;48.32;100841.75;2064461;28;20038;-54
2021/03/30 01:21:20;;;;;;;2.67;2.33;;;;;;;18.38;48.41;100842.78;2055653;28;20027;-54
2021/03/30 01:22:59;;;;;;;2.97;2.40;;;;;;;18.37;48.43;100838.31;2060283;28;20022;-55
2021/03/30 01:24:10;;;;;;;2.45;1.95;;;;;;;18.37;48.41;100831.97;2063923;28;20060;-54
2021/03/30 01:25:11;;;;;;;4.38;2.50;;;;;;;18.38;48.43;100837.31;2059484;28;20350;-55
2021/03/30 01:26:39;;;;;;;2.92;2.20;;;;;;;18.37;48.42;100837.44;2057816;28;20030;-54
2021/03/30 01:27:58;;;;;;;3.50;2.10;;;;;;;18.37;48.56;100838.31;2060031;28;20045;-54
2021/03/30 01:29:03;;;;;;;2.42;1.90;;;;;;;18.38;48.44;100831.00;2065179;28;20476;-55
2021/03/30 01:30:05;;;;;;;2.15;1.85;;;;;;;18.38;48.53;100823.66;2062941;28;20034;-55
2021/03/30 01:31:06;;;;;;;3.65;2.50;;;;;;;18.40;48.43;100838.06;2065705;28;20624;-54
2021/03/30 01:32:12;;;;;;;2.43;1.97;;;;;;;18.38;48.46;100834.59;2060038;28;20042;-54
2021/03/30 01:33:19;;;;;;;2.65;2.03;;;;;;;18.40;48.44;100832.59;2060339;28;20117;-55
2021/03/30 01:34:22;;;;;;;2.83;2.17;;;;;;;18.39;48.59;100830.84;2057111;28;20742;-54
2021/03/30 01:35:25;;;;;;;2.78;2.00;;;;;;;18.40;48.31;100827.13;2059594;28;20025;-54
2021/03/30 01:36:28;;;;;;;2.72;2.28;;;;;;;18.39;48.26;100830.84;2060388;28;20022;-54
2021/03/30 01:37:33;;;;;;;3.17;2.20;;;;;;;18.40;48.31;100826.28;2063728;28;20026;-55
2021/03/30 01:38:34;;;;;;;3.63;2.35;;;;;;;18.40;48.40;100821.69;2062224;28;20104;-55
2021/03/30 01:39:37;;;;;;;2.73;2.10;;;;;;;18.40;48.35;100827.13;2065246;28;20022;-55
2021/03/30 01:40:39;;;;;;;3.17;2.25;;;;;;;18.41;48.51;100828.00;2070398;28;20112;-55
2021/03/30 01:41:43;;;;;;;3.22;2.28;;;;;;;18.40;48.32;100821.69;2062585;28;20109;-55
2021/03/30 01:42:47;;;;;;;2.92;2.30;;;;;;;18.41;48.31;100826.13;2062061;28;20034;-55
2021/03/30 01:43:48;;;;;;;2.60;2.25;;;;;;;18.42;48.34;100825.16;2070459;28;20026;-54
2021/03/30 01:44:49;;;;;;;2.97;2.03;;;;;;;18.42;48.42;100822.44;2059189;28;20029;-54
2021/03/30 01:45:54;;;;;;;3.15;2.30;;;;;;;18.45;48.28;100825.88;2064278;28;20037;-54
2021/03/30 01:46:55;;;;;;;2.88;1.90;;;;;;;18.43;48.28;100818.69;2061654;28;20144;-54
2021/03/30 01:47:57;;;;;;;3.08;2.40;;;;;;;18.45;48.27;100823.13;2059542;28;20035;-55
2021/03/30 01:48:59;;;;;;;2.75;2.08;;;;;;;18.44;48.30;100819.56;2063477;28;20034;-55
2021/03/30 01:50:01;;;;;;;;;;;;;;;18.41;48.40;100817.94;2062435;28;20029;-55
2021/03/30 01:51:02;;;;;;;3.03;2.20;;;;;;;18.45;48.40;100823.13;2068681;28;19921;-53
2021/03/30 01:52:03;;;;;;;1.98;1.73;;;;;;;18.47;48.27;100821.16;2058286;28;20506;-55
2021/03/30 01:53:06;;;;;;;5.18;2.50;;;;;;;18.48;48.38;100820.19;2056755;28;20061;-55
2021/03/30 01:54:08;;;;;;;3.28;2.13;;;;;;;18.48;48.49;100817.44;2061247;28;20034;-54
2021/03/30 01:55:09;;;;;;;;;;;;;;;18.43;48.51;100817.81;2064859;28;20030;-54
2021/03/30 01:56:12;;;;;;;2.90;2.33;;;;;;;18.45;48.52;100812.22;2057592;28;19914;-55
2021/03/30 01:57:13;;;;;;;3.30;1.77;;;;;;;18.46;48.44;100811.25;2055668;28;20053;-54
2021/03/30 01:58:20;;;;;;;2.83;1.80;;;;;;;18.46;48.50;100805.78;2056065;28;20030;-55
2021/03/30 01:59:22;;;;;;;3.88;2.22;;;;;;;18.46;48.59;100814.84;2059674;28;20700;-55
2021/03/30 02:00:26;;;;;;;2.70;2.08;;;;;;;18.48;48.34;100806.53;2063128;28;20038;-55
2021/03/30 02:01:28;;;;;;;2.75;2.15;;;;;;;18.47;48.45;100804.78;2063933;28;20030;-54
2021/03/30 02:02:29;;;;;;;;;;;;;;;18.45;48.38;100806.75;2062982;28;20038;-55
2021/03/30 02:03:29;;;;;;;3.03;1.90;;;;;;;18.45;48.38;100799.47;2064855;28;19921;-54
2021/03/30 02:04:30;;;;;;;3.47;2.37;;;;;;;18.46;48.40;100808.50;2067012;28;20064;-54
2021/03/30 02:05:31;;;;;;;2.38;2.10;;;;;;;18.46;48.32;100811.25;2069035;28;20143;-55
2021/03/30 02:06:34;;;;;;;3.35;1.98;;;;;;;18.47;48.30;100807.50;2060638;28;20042;-54
2021/03/30 02:07:35;;;;;;;3.03;2.00;;;;;;;18.46;48.35;100801.19;2063280;28;20602;-54
2021/03/30 02:08:37;;;;;;;2.83;2.50;;;;;;;18.47;48.37;100799.31;2068723;28;20030;-55
2021/03/30 02:09:42;;;;;;;2.53;1.92;;;;;;;18.47;48.29;100808.41;2060355;28;20040;-54
2021/03/30 02:12:07;;;;;;;3.20;2.40;;;;;;;18.47;48.10;100799.31;2064276;28;20045;-55
2021/03/30 02:13:19;;;;;;;2.47;1.92;;;;;;;18.46;48.21;100786.69;2064062;28;20042;-54
2021/03/30 02:14:20;;;;;;;2.97;2.03;;;;;;;18.47;48.22;100793.84;2063318;28;20030;-54
2021/03/30 02:15:21;;;;;;;2.65;2.28;;;;;;;18.48;48.26;100795.59;2061107;28;20479;-55
2021/03/30 02:16:25;;;;;;;2.10;1.90;;;;;;;18.47;48.03;100793.84;2063195;28;20068;-54
2021/03/30 02:17:37;;;;;;;2.35;1.95;;;;;;;18.47;48.26;100796.59;2067112;28;20393;-54
2021/03/30 02:18:53;;;;;;;3.03;2.40;;;;;;;18.47;48.29;100788.41;2062049;28;20031;-54
2021/03/30 02:20:05;;;;;;;2.85;1.95;;;;;;;18.46;48.29;100792.13;2055980;28;20230;-55
2021/03/30 02:21:06;;;;;;;3.42;2.28;;;;;;;18.46;48.20;100793.00;2060440;28;20085;-54
2021/03/30 02:22:18;;;;;;;2.70;2.00;;;;;;;18.47;47.97;100793.84;2063405;28;20041;-54
2021/03/30 02:23:26;;;;;;;3.10;2.13;;;;;;;18.47;48.12;100788.41;2056998;28;20041;-55
2021/03/30 02:24:30;;;;;;;2.55;2.10;;;;;;;18.47;48.23;100785.66;2062335;28;20037;-53
2021/03/30 02:25:32;;;;;;;3.15;2.00;;;;;;;18.48;48.28;100785.56;2062007;28;20032;-54
2021/03/30 02:26:34;;;;;;;2.45;1.88;;;;;;;18.48;48.11;100790.16;2056952;28;20045;-55
2021/03/30 02:27:40;;;;;;;3.58;2.50;;;;;;;18.47;48.24;100786.56;2060027;28;20030;-54
2021/03/30 02:29:45;;;;;;;2.78;2.00;;;;;;;18.49;48.11;100786.41;2057823;28;20031;-54
2021/03/30 02:30:47;;;;;;;2.85;2.40;;;;;;;18.48;48.15;100781.97;2058424;28;20113;-54
2021/03/30 02:31:51;;;;;;;2.70;2.08;;;;;;;18.48;48.20;100781.97;2064638;28;20033;-55
2021/03/30 02:32:54;;;;;;;2.40;1.90;;;;;;;18.48;48.19;100787.41;2065723;28;20108;-54
2021/03/30 02:33:58;;;;;;;2.15;1.90;;;;;;;18.48;48.13;100785.56;2067898;28;20180;-55
2021/03/30 02:35:04;;;;;;;2.88;2.05;;;;;;;18.47;48.14;100782.94;2063450;28;20076;-54
2021/03/30 02:36:05;;;;;;;3.78;2.22;;;;;;;18.47;48.09;100782.94;2062087;28;20101;-55
2021/03/30 02:37:06;;;;;;;3.10;2.40;;;;;;;18.47;48.17;100783.81;2060444;28;20038;-54
2021/03/30 02:38:08;;;;;;;2.77;2.17;;;;;;;18.46;48.04;100782.06;2062565;28;20322;-54
2021/03/30 02:39:11;;;;;;;3.38;2.10;;;;;;;18.46;48.23;100781.22;2060997;28;20042;-54
2021/03/30 02:40:15;;;;;;;2.95;1.77;;;;;;;18.47;48.13;100778.38;2062150;28;20050;-54
2021/03/30 02:41:16;;;;;;;2.83;2.08;;;;;;;18.45;48.32;100780.34;2061651;28;20030;-54
2021/03/30 02:42:19;;;;;;;2.30;1.75;;;;;;;18.45;48.11;100779.47;2064329;28;20032;-54
2021/03/30 02:43:21;;;;;;;2.90;2.38;;;;;;;18.46;48.31;100778.47;2063549;28;20072;-54
2021/03/30 02:44:23;;;;;;;2.58;1.65;;;;;;;18.45;48.35;100780.34;2064598;28;20176;-55
2021/03/30 02:45:27;;;;;;;3.20;1.90;;;;;;;18.46;48.34;100775.75;2070105;28;20091;-54
2021/03/30 02:46:31;;;;;;;2.40;1.90;;;;;;;18.46;48.29;100782.06;2070248;28;20416;-52
2021/03/30 02:47:32;;;;;;;2.20;2.00;;;;;;;18.44;48.32;100773.13;2072017;28;20085;-54
2021/03/30 02:48:37;;;;;;;2.25;2.05;;;;;;;18.43;48.35;100772.28;2063137;28;20129;-54
2021/03/30 02:49:38;;;;;;;3.97;2.30;;;;;;;18.45;48.26;100776.72;2064606;28;20040;-54
2021/03/30 02:50:40;;;;;;;3.50;2.00;;;;;;;18.44;48.18;100775.88;2066883;28;20604;-53
2021/03/30 02:51:41;;;;;;;3.88;2.67;;;;;;;18.45;48.23;100774.00;2066406;28;20058;-54
2021/03/30 02:52:43;;;;;;;2.50;2.20;;;;;;;18.45;48.24;100776.72;2063168;28;20042;-54
2021/03/30 02:53:46;;;;;;;2.83;1.77;;;;;;;18.43;48.33;100766.81;2063264;28;20050;-53
2021/03/30 02:54:47;;;;;;;2.42;1.90;;;;;;;18.43;48.33;100772.28;2063286;28;20034;-54
2021/03/30 02:55:49;;;;;;;2.78;2.05;;;;;;;18.42;48.36;100770.56;2064215;28;20358;-54
2021/03/30 02:56:49;;;;;;;2.22;2.03;;;;;;;18.42;48.25;100766.94;2060466;28;20039;-53
2021/03/30 02:57:50;;;;;;;4.20;1.97;;;;;;;18.42;48.17;100764.22;2061989;28;20054;-54
2021/03/30 02:58:52;;;;;;;2.23;1.90;;;;;;;18.43;48.28;100766.81;2064347;28;20053;-55
2021/03/30 02:59:55;;;;;;;2.85;1.98;;;;;;;18.40;48.25;100761.63;2055626;28;20038;-54
2021/03/30 03:00:58;;;;;;;4.43;2.30;;;;;;;18.41;48.27;100767.94;2058212;28;20034;-54
2021/03/30 03:01:59;;;;;;;2.50;1.80;;;;;;;18.41;48.34;100763.34;2061949;28;20104;-54
2021/03/30 03:03:03;;;;;;;3.72;2.20;;;;;;;18.40;48.41;100772.53;2064186;28;20428;-54
2021/03/30 03:04:04;;;;;;;2.33;2.03;;;;;;;18.42;48.21;100769.66;2070715;28;20044;-54
2021/03/30 03:05:07;;;;;;;3.63;2.20;;;;;;;18.40;48.25;100761.63;2063773;28;20102;-54
2021/03/30 03:06:08;;;;;;;2.15;1.67;;;;;;;18.40;48.33;100767.09;2063825;28;20069;-54
2021/03/30 03:07:09;;;;;;;1.95;1.70;;;;;;;18.40;48.19;100772.53;2060836;28;20345;-54
2021/03/30 03:08:10;;;;;;;2.50;2.00;;;;;;;18.41;48.32;100773.41;2062634;28;20030;-54
2021/03/30 03:09:12;;;;;;;2.60;2.30;;;;;;;18.40;48.27;100769.81;2064099;28;20061;-53
2021/03/30 03:10:13;;;;;;;2.75;1.90;;;;;;;18.40;48.30;100767.09;2065701;28;20037;-55
2021/03/30 03:11:16;;;;;;;2.80;2.10;;;;;;;18.40;48.34;100767.09;2069370;28;20453;-55
2021/03/30 03:12:17;;;;;;;2.78;1.98;;;;;;;18.39;48.33;100765.34;2065234;28;20062;-56
2021/03/30 03:13:18;;;;;;;3.85;2.03;;;;;;;18.40;48.13;100772.53;2066536;28;20119;-56
2021/03/30 03:14:20;;;;;;;2.83;2.25;;;;;;;18.39;48.40;100765.34;2068950;28;20364;-55
2021/03/30 03:15:21;;;;;;;2.92;2.00;;;;;;;18.39;48.46;100770.78;2074298;28;20038;-55
2021/03/30 03:16:23;;;;;;;4.63;2.10;;;;;;;18.39;48.38;100765.34;2063982;28;20030;-56
2021/03/30 03:17:25;;;;;;;2.88;2.00;;;;;;;18.39;48.52;100765.34;2066124;28;20038;-55
2021/03/30 03:18:26;;;;;;;4.10;2.20;;;;;;;18.39;48.33;100769.94;2065356;28;20030;-55
2021/03/30 03:19:27;;;;;;;3.27;2.30;;;;;;;18.41;48.40;100774.28;2064728;28;20038;-56
2021/03/30 03:20:29;;;;;;;2.67;2.33;;;;;;;18.38;48.18;100769.06;2063863;28;20038;-55
2021/03/30 03:21:29;;;;;;;3.00;2.03;;;;;;;18.39;48.45;100764.47;2062861;28;20035;-54
2021/03/30 03:22:30;;;;;;;4.10;1.90;;;;;;;18.39;48.24;100765.34;2066544;28;20026;-56
2021/03/30 03:23:31;;;;;;;2.80;2.17;;;;;;;18.39;48.15;100776.25;2067509;28;20084;-55
2021/03/30 03:24:32;;;;;;;2.72;2.05;;;;;;;18.40;48.25;100771.69;2064516;28;20140;-55
2021/03/30 03:25:34;;;;;;;2.30;1.70;;;;;;;18.40;48.25;100766.22;2065713;28;20057;-55
2021/03/30 03:26:36;;;;;;;;;;;;;;;18.33;48.19;100771.31;2065407;28;20787;-55
2021/03/30 03:27:37;;;;;;;3.50;2.45;;;;;;;18.34;48.35;100775.78;2061306;28;19914;-54
2021/03/30 03:28:46;;;;;;;3.20;2.40;;;;;;;18.34;48.40;100773.03;2064922;28;20096;-56
2021/03/30 03:29:47;;;;;;;3.70;1.98;;;;;;;18.36;48.43;100781.13;2072005;28;20069;-54
2021/03/30 03:30:48;;;;;;;2.10;1.90;;;;;;;18.37;48.30;100777.38;2064888;28;20038;-56
2021/03/30 03:31:50;;;;;;;2.80;1.90;;;;;;;18.35;48.31;100774.81;2063836;28;20497;-55
2021/03/30 03:32:50;;;;;;;3.20;2.15;;;;;;;18.36;48.45;100781.13;2065101;28;20030;-54
2021/03/30 03:33:51;;;;;;;2.33;2.07;;;;;;;18.36;48.18;100773.78;2059715;28;20639;-56
2021/03/30 03:34:51;;;;;;;3.07;2.30;;;;;;;18.36;48.42;100771.06;2071294;28;20033;-55
2021/03/30 03:36:09;;;;;;;2.70;1.87;;;;;;;18.37;48.32;100774.66;2062902;28;20046;-56
2021/03/30 03:37:09;;;;;;;2.65;1.80;;;;;;;18.38;48.28;100776.41;2057851;28;20070;-55
2021/03/30 03:38:12;;;;;;;2.13;1.93;;;;;;;18.37;48.32;100775.53;2062548;28;20038;-55
2021/03/30 03:39:15;;;;;;;2.80;1.90;;;;;;;18.37;48.28;100777.38;2061893;28;20058;-56
2021/03/30 03:40:16;;;;;;;2.10;1.70;;;;;;;18.38;48.36;100780.00;2064490;28;20041;-55
2021/03/30 03:41:16;;;;;;;3.37;2.10;;;;;;;18.38;48.17;100777.25;2062014;28;20042;-55
2021/03/30 03:42:17;;;;;;;2.50;2.13;;;;;;;18.37;48.38;100775.53;2059187;28;20274;-55
2021/03/30 03:43:17;;;;;;;2.47;1.70;;;;;;;18.37;48.38;100778.28;2061050;28;20038;-56
2021/03/30 03:44:18;;;;;;;2.53;2.10;;;;;;;18.38;48.41;100774.53;2065799;28;20029;-56
2021/03/30 03:45:18;;;;;;;3.60;2.20;;;;;;;18.38;48.31;100773.69;2062955;28;21281;-56
2021/03/30 03:46:19;;;;;;;3.80;2.27;;;;;;;18.37;48.45;100772.81;2065737;28;20708;-55
2021/03/30 03:47:22;;;;;;;3.17;2.17;;;;;;;18.36;48.51;100764.75;2061532;28;20030;-56
2021/03/30 03:48:23;;;;;;;2.63;2.03;;;;;;;18.37;48.24;100767.34;2062394;28;20030;-55
2021/03/30 03:49:25;;;;;;;2.93;1.90;;;;;;;18.36;48.21;100764.75;2065935;28;20062;-55
2021/03/30 03:50:26;;;;;;;3.22;1.90;;;;;;;18.35;48.33;100774.81;2061016;28;20045;-55
2021/03/30 03:51:32;;;;;;;2.43;1.97;;;;;;;18.35;48.38;100758.44;2064957;28;20473;-56
2021/03/30 03:52:38;;;;;;;2.20;2.00;;;;;;;18.36;48.24;100771.06;2064375;28;20022;-55
2021/03/30 03:53:39;;;;;;;2.63;1.85;;;;;;;18.36;48.29;100771.06;2062147;28;20021;-55
2021/03/30 03:54:43;;;;;;;2.38;1.88;;;;;;;18.36;48.16;100776.53;2058575;28;20035;-55
2021/03/30 03:55:50;;;;;;;2.67;2.15;;;;;;;18.37;48.29;100767.34;2061515;28;20039;-56
2021/03/30 03:57:18;;;;;;;2.88;1.75;;;;;;;18.34;48.23;100762.13;2062022;28;20046;-56
2021/03/30 03:58:24;;;;;;;3.00;2.20;;;;;;;18.35;48.31;100763.03;2059745;28;20038;-55
2021/03/30 03:59:33;;;;;;;2.35;1.90;;;;;;;18.35;48.33;100766.63;2059839;28;20027;-56
2021/03/30 04:00:34;;;;;;;3.03;2.20;;;;;;;18.34;48.38;100781.22;2064143;28;20463;-56
2021/03/30 04:01:47;;;;;;;3.07;2.20;;;;;;;18.35;48.29;100774.81;2065678;28;20061;-56
2021/03/30 04:02:54;;;;;;;2.78;2.03;;;;;;;18.35;48.27;100773.94;2064806;28;20106;-55
2021/03/30 04:04:00;;;;;;;2.60;2.08;;;;;;;18.33;48.38;100768.59;2061875;28;20030;-55
2021/03/30 04:05:08;;;;;;;2.35;1.73;;;;;;;18.34;48.36;100772.19;2068140;28;20053;-56
2021/03/30 04:06:13;;;;;;;3.10;1.90;;;;;;;18.32;48.42;100764.13;2064501;28;20046;-54
2021/03/30 04:07:19;;;;;;;3.25;2.22;;;;;;;18.33;48.29;100763.13;2066299;28;20035;-56
2021/03/30 04:08:21;;;;;;;2.97;2.05;;;;;;;18.33;48.47;100765.88;2060596;28;20022;-56
2021/03/30 04:09:23;;;;;;;2.25;1.75;;;;;;;18.32;48.27;100769.56;2060037;28;20022;-55
2021/03/30 04:10:24;;;;;;;;;;;;;;;18.27;48.45;100760.91;2065854;28;20025;-55
2021/03/30 04:11:26;;;;;;;1.95;1.67;;;;;;;18.29;48.37;100768.97;2064900;28;20012;-54
2021/03/30 04:12:30;;;;;;;2.42;2.15;;;;;;;18.30;48.42;100766.13;2060307;28;20022;-55
2021/03/30 04:13:32;;;;;;;2.00;1.77;;;;;;;18.30;48.38;100760.69;2061602;28;20138;-56
2021/03/30 04:14:33;;;;;;;1.65;1.55;;;;;;;18.32;48.46;100766.84;2058595;28;20030;-55
2021/03/30 04:15:34;;;;;;;2.40;2.20;;;;;;;18.32;48.20;100769.56;2062056;28;20035;-55
2021/03/30 04:16:35;;;;;;;2.80;2.10;;;;;;;18.33;48.37;100771.31;2065066;28;20270;-55
2021/03/30 04:17:36;;;;;;;2.30;1.70;;;;;;;18.33;48.16;100765.88;2058858;28;20062;-55
2021/03/30 04:18:39;;;;;;;2.23;1.70;;;;;;;18.33;48.29;100765.88;2061554;28;20034;-55
2021/03/30 04:19:40;;;;;;;2.10;1.67;;;;;;;18.33;48.36;100760.41;2061844;28;20034;-56
2021/03/30 04:20:41;;;;;;;2.43;1.90;;;;;;;18.32;48.22;100766.84;2057419;28;20031;-56
2021/03/30 04:21:42;;;;;;;2.65;1.55;;;;;;;18.32;48.52;100764.13;2059831;28;20436;-55
2021/03/30 04:22:46;;;;;;;2.27;1.60;;;;;;;18.33;48.48;100760.41;2064948;28;20037;-56
2021/03/30 04:23:47;;;;;;;1.98;1.77;;;;;;;18.32;48.40;100764.13;2063227;28;20057;-55
2021/03/30 04:24:48;;;;;;;2.40;2.10;;;;;;;18.32;48.29;100763.25;2065251;28;20030;-56
2021/03/30 04:25:48;;;;;;;2.87;2.10;;;;;;;18.32;48.54;100768.72;2064711;28;20500;-56
2021/03/30 04:26:49;;;;;;;2.10;1.80;;;;;;;18.32;48.55;100772.31;2065677;28;20149;-55
2021/03/30 04:27:49;;;;;;;2.37;1.90;;;;;;;18.33;48.48;100763.13;2061320;28;20031;-56
2021/03/30 04:28:51;;;;;;;2.10;1.77;;;;;;;18.32;48.50;100771.44;2058986;28;20042;-55
2021/03/30 04:29:51;;;;;;;2.53;1.75;;;;;;;18.32;48.46;100769.56;2056779;28;20744;-54
2021/03/30 04:30:51;;;;;;;2.43;1.77;;;;;;;18.32;48.34;100765.97;2062044;28;20026;-56
2021/03/30 04:31:52;;;;;;;2.67;1.77;;;;;;;18.33;48.39;100774.06;2065733;28;20122;-55
2021/03/30 04:32:52;;;;;;;2.37;1.60;;;;;;;18.34;48.36;100766.72;2061963;28;20041;-56
2021/03/30 04:33:53;;;;;;;3.05;1.77;;;;;;;18.32;48.39;100769.56;2065428;28;20029;-55
2021/03/30 04:34:53;;;;;;;2.30;2.03;;;;;;;18.32;48.44;100772.31;2062483;28;20484;-55
2021/03/30 04:35:54;;;;;;;3.13;2.10;;;;;;;18.30;48.45;100766.13;2064058;28;20114;-55
2021/03/30 04:36:54;;;;;;;2.63;1.97;;;;;;;18.31;48.42;100770.59;2065741;28;20280;-52
2021/03/30 04:37:55;;;;;;;2.67;1.80;;;;;;;18.32;48.48;100769.56;2057571;28;20110;-55
2021/03/30 04:38:55;;;;;;;1.90;1.43;;;;;;;18.32;48.19;100764.13;2066211;28;20038;-54
2021/03/30 04:39:56;;;;;;;2.17;1.90;;;;;;;18.33;48.23;100765.88;2067273;28;20036;-55
2021/03/30 04:40:56;;;;;;;2.17;1.97;;;;;;;18.35;48.17;100766.63;2063025;28;20761;-54
2021/03/30 04:41:57;;;;;;;3.07;2.20;;;;;;;18.35;48.29;100758.44;2065641;28;20029;-54
2021/03/30 04:42:58;;;;;;;3.20;2.03;;;;;;;18.34;48.34;100764.84;2064185;28;20022;-54
2021/03/30 04:43:58;;;;;;;2.47;1.97;;;;;;;18.34;48.36;100764.84;2058903;28;20022;-55
2021/03/30 04:44:59;;;;;;;3.20;2.00;;;;;;;18.35;48.20;100769.34;2064306;28;20401;-52
2021/03/30 04:45:59;;;;;;;5.67;2.10;;;;;;;18.36;48.31;100762.88;2064075;28;20427;-54
2021/03/30 04:47:00;;;;;;;3.07;1.80;;;;;;;18.36;48.42;100753.81;2065593;28;20026;-55
2021/03/30 04:48:01;;;;;;;2.23;1.80;;;;;;;18.36;48.34;100762.88;2060430;28;20343;-55
2021/03/30 04:49:01;;;;;;;3.20;2.08;;;;;;;18.39;48.14;100764.47;2066299;28;20040;-54
2021/03/30 04:50:04;;;;;;;2.93;2.17;;;;;;;18.39;48.32;100759.03;2065357;28;20041;-53
2021/03/30 04:51:05;;;;;;;2.78;2.15;;;;;;;18.39;48.33;100759.03;2060389;28;20085;-55
2021/03/30 04:52:06;;;;;;;2.38;2.03;;;;;;;18.38;48.44;100766.34;2059170;28;21144;-55
2021/03/30 04:53:06;;;;;;;2.20;1.67;;;;;;;18.38;48.24;100763.63;2070441;28;20030;-55
2021/03/30 04:54:07;;;;;;;2.87;2.03;;;;;;;18.38;48.19;100757.28;2063652;28;20135;-56
2021/03/30 04:55:08;;;;;;;2.57;1.87;;;;;;;18.39;48.39;100757.16;2073704;28;20028;-55
2021/03/30 04:56:08;;;;;;;3.70;2.67;;;;;;;18.39;48.15;100759.88;2063430;28;20026;-55
2021/03/30 04:57:09;;;;;;;3.10;2.23;;;;;;;18.38;48.25;100751.84;2061984;28;20238;-55